Time;durP1;ratioP1;P1;durP2;ratioP2;P2;SDS_P1;SDS_P2;PMS_P1;PMS_P2;Temp;Humidity;BMP_temperature;BMP_pressure;BME280_temperature;BME280_humidity;BME280_pressure;Samples;Min_cycle;Max_cycle;Signal;HPM_P1;HPM_P2
2022/11/28 00:00:09;;;;;;;13.37;9.40;;;2.50;98.80;;;;;;5058372;28;20284;-88
2022/11/28 00:02:36;;;;;;;11.70;9.63;;;2.40;98.70;;;;;;5060597;28;20293;-90
2022/11/28 00:05:07;;;;;;;11.93;9.70;;;2.50;98.70;;;;;;5057683;28;20292;-90
2022/11/28 00:07:33;;;;;;;14.53;9.90;;;2.40;98.70;;;;;;5047322;28;20236;-89
2022/11/28 00:10:00;;;;;;;11.23;9.27;;;2.40;98.60;;;;;;5043024;28;20210;-89
2022/11/28 00:12:29;;;;;;;12.17;9.70;;;2.40;98.90;;;;;;5048625;28;20255;-88
2022/11/28 00:14:56;;;;;;;12.63;9.63;;;2.30;98.80;;;;;;5048225;28;20202;-88
2022/11/28 00:17:23;;;;;;;12.13;9.47;;;2.40;99.00;;;;;;5045962;28;20210;-88
2022/11/28 00:19:50;;;;;;;13.40;9.57;;;2.40;98.90;;;;;;5052887;28;20577;-89
2022/11/28 00:22:17;;;;;;;11.73;9.20;;;2.50;98.70;;;;;;5048590;28;20212;-89
2022/11/28 00:24:44;;;;;;;12.77;9.87;;;2.50;98.80;;;;;;5048198;28;20741;-89
2022/11/28 00:27:10;;;;;;;11.57;9.47;;;2.40;98.60;;;;;;5042183;28;20300;-88
2022/11/28 00:29:40;;;;;;;11.93;9.53;;;2.40;98.80;;;;;;5051026;28;20202;-88
2022/11/28 00:32:07;;;;;;;13.43;9.90;;;2.50;98.50;;;;;;5047904;28;20237;-88
2022/11/28 00:34:34;;;;;;;12.83;9.37;;;2.40;98.60;;;;;;5048504;28;20285;-88
2022/11/28 00:37:01;;;;;;;12.40;9.50;;;2.30;98.70;;;;;;5047012;28;20260;-89
2022/11/28 00:39:28;;;;;;;11.83;9.63;;;2.20;99.10;;;;;;5047547;28;20305;-89
2022/11/28 00:41:54;;;;;;;12.20;9.03;;;2.10;99.60;;;;;;5051506;28;20202;-88
2022/11/28 00:44:22;;;;;;;12.53;9.77;;;2.10;99.60;;;;;;5051015;28;20209;-89
2022/11/28 00:46:50;;;;;;;12.60;9.50;;;2.30;99.70;;;;;;5050067;28;20699;-88
2022/11/28 00:49:17;;;;;;;13.07;9.90;;;2.30;99.40;;;;;;5049768;28;20220;-89
2022/11/28 00:51:44;;;;;;;12.17;9.17;;;2.30;99.40;;;;;;5049680;28;20194;-89
2022/11/28 00:54:12;;;;;;;14.83;9.97;;;2.20;99.60;;;;;;5049415;28;20541;-89
2022/11/28 00:56:40;;;;;;;13.07;9.83;;;2.20;99.70;;;;;;5049765;28;20631;-89
2022/11/28 00:59:07;;;;;;;13.87;10.17;;;2.30;99.70;;;;;;5047738;28;20296;-89
2022/11/28 01:01:36;;;;;;;11.30;9.17;;;2.40;99.30;;;;;;5046051;28;20238;-89
2022/11/28 01:04:07;;;;;;;10.57;8.57;;;2.50;99.10;;;;;;5042683;28;20237;-88
2022/11/28 01:06:39;;;;;;;10.67;9.20;;;2.50;98.90;;;;;;5049432;28;20209;-88
2022/11/28 01:09:09;;;;;;;12.27;9.37;;;2.50;98.60;;;;;;5050188;28;20213;-89
2022/11/28 01:11:38;;;;;;;12.63;9.73;;;2.60;98.60;;;;;;5048887;28;20202;-89
2022/11/28 01:14:06;;;;;;;12.63;9.50;;;2.60;98.30;;;;;;5046653;28;20207;-90
2022/11/28 01:16:33;;;;;;;12.73;9.50;;;2.50;98.00;;;;;;5049538;28;20194;-89
2022/11/28 01:18:59;;;;;;;12.57;9.73;;;2.50;98.00;;;;;;5047587;28;20765;-88
2022/11/28 01:21:28;;;;;;;12.07;9.60;;;2.30;98.30;;;;;;5049429;28;20220;-89
2022/11/28 01:23:55;;;;;;;12.20;9.77;;;2.20;98.70;;;;;;5048340;28;20212;-88
2022/11/28 01:26:24;;;;;;;12.77;9.33;;;2.20;99.30;;;;;;5047241;28;20232;-88
2022/11/28 01:28:52;;;;;;;13.03;9.67;;;2.30;99.20;;;;;;5047405;28;20285;-88
2022/11/28 01:31:22;;;;;;;13.57;10.00;;;2.30;98.70;;;;;;5044975;28;20619;-88
2022/11/28 01:33:55;;;;;;;12.57;9.37;;;2.20;98.90;;;;;;5050575;28;20197;-88
2022/11/28 01:36:22;;;;;;;12.77;9.60;;;2.10;99.10;;;;;;5050752;28;20245;-89
2022/11/28 01:38:52;;;;;;;12.20;9.50;;;2.20;99.30;;;;;;5048214;28;20241;-89
2022/11/28 01:41:21;;;;;;;11.77;9.10;;;2.30;99.10;;;;;;5053485;28;20201;-88
2022/11/28 01:44:08;;;;;;;13.03;9.60;;;2.20;98.90;;;;;;5046944;28;20650;-87
2022/11/28 01:46:36;;;;;;;10.93;9.03;;;2.10;99.20;;;;;;5046065;28;20216;-88
2022/11/28 01:49:10;;;;;;;12.33;9.60;;;2.10;99.60;;;;;;5055838;28;20197;-88
2022/11/28 01:51:38;;;;;;;12.70;10.00;;;2.10;99.60;;;;;;5051080;28;20212;-89
2022/11/28 01:54:07;;;;;;;11.97;9.50;;;2.00;99.60;;;;;;5057186;28;20311;-88
2022/11/28 01:56:43;;;;;;;13.47;9.93;;;1.90;99.60;;;;;;5060307;28;20218;-87
2022/11/28 01:59:12;;;;;;;12.80;10.10;;;1.90;99.60;;;;;;5052241;28;20677;-87
2022/11/28 02:01:39;;;;;;;12.93;9.60;;;2.10;99.60;;;;;;5054220;28;20229;-87
2022/11/28 02:04:13;;;;;;;16.03;9.57;;;2.20;99.70;;;;;;5056277;28;20198;-87
2022/11/28 02:06:41;;;;;;;14.37;9.50;;;2.30;99.00;;;;;;5050682;28;20213;-88
2022/11/28 02:09:12;;;;;;;13.00;9.37;;;2.30;98.90;;;;;;5053372;28;20336;-88
2022/11/28 02:12:11;;;;;;;13.83;9.80;;;2.30;98.80;;;;;;5056762;28;20285;-87
2022/11/28 02:15:01;;;;;;;13.67;9.97;;;2.20;99.10;;;;;;5047800;28;20293;-87
2022/11/28 02:17:42;;;;;;;13.47;10.27;;;2.00;99.60;;;;;;5049507;28;20312;-87
2022/11/28 02:20:36;;;;;;;13.83;10.00;;;2.00;99.60;;;;;;5059122;28;20209;-87
2022/11/28 02:23:08;;;;;;;13.47;10.03;;;2.00;99.80;;;;;;5049291;28;20289;-88
2022/11/28 02:26:06;;;;;;;14.43;10.27;;;2.00;99.90;;;;;;5050307;28;20285;-88
2022/11/28 02:28:56;;;;;;;14.33;10.40;;;2.20;99.70;;;;;;5055185;28;20362;-88
2022/11/28 02:31:38;;;;;;;13.23;10.23;;;2.20;99.70;;;;;;5046312;28;20269;-87
2022/11/28 02:34:10;;;;;;;13.73;10.43;;;2.10;99.60;;;;;;5046774;28;20567;-87
2022/11/28 02:36:45;;;;;;;12.43;10.03;;;2.30;99.50;;;;;;5048626;28;20297;-87
2022/11/28 02:39:18;;;;;;;14.17;9.87;;;2.30;99.00;;;;;;5056035;28;20320;-89
2022/11/28 02:41:50;;;;;;;12.57;10.20;;;2.40;99.30;;;;;;5048216;28;20198;-88
2022/11/28 02:44:19;;;;;;;11.90;9.70;;;2.50;98.50;;;;;;5063433;28;20657;-89
2022/11/28 02:46:52;;;;;;;13.50;9.33;;;2.60;98.10;;;;;;5048744;28;20202;-90
2022/11/28 02:49:26;;;;;;;13.20;9.90;;;2.60;97.90;;;;;;5052972;28;20214;-90
2022/11/28 02:51:57;;;;;;;12.53;9.63;;;2.50;98.40;;;;;;5048486;28;20211;-89
2022/11/28 02:54:26;;;;;;;13.20;9.93;;;2.50;98.50;;;;;;5057307;28;20229;-89
2022/11/28 02:56:54;;;;;;;14.13;10.23;;;2.50;98.60;;;;;;5048651;28;20539;-89
2022/11/28 02:59:33;;;;;;;12.00;10.07;;;2.50;98.40;;;;;;5045822;28;21288;-89
2022/11/28 03:02:02;;;;;;;13.70;10.30;;;2.50;98.40;;;;;;5040514;28;20289;-89
2022/11/28 03:04:39;;;;;;;12.37;9.60;;;2.40;98.70;;;;;;5050804;28;20194;-88
2022/11/28 03:07:19;;;;;;;12.83;9.67;;;2.60;98.50;;;;;;5052491;28;20197;-89
2022/11/28 03:10:23;;;;;;;15.10;10.33;;;2.50;98.30;;;;;;5041598;28;20201;-89
2022/11/28 03:13:07;;;;;;;12.87;9.63;;;2.50;98.60;;;;;;5057307;28;20207;-89
2022/11/28 03:16:06;;;;;;;14.50;10.47;;;2.50;98.40;;;;;;5032462;28;20293;-89
2022/11/28 03:18:39;;;;;;;12.77;10.00;;;2.50;98.00;;;;;;5044599;28;20642;-89
2022/11/28 03:21:36;;;;;;;12.57;9.63;;;2.40;98.50;;;;;;5051013;28;20277;-89
2022/11/28 03:24:12;;;;;;;13.43;10.00;;;2.40;99.10;;;;;;5053420;28;20204;-89
2022/11/28 03:26:48;;;;;;;13.33;9.90;;;2.50;98.50;;;;;;5057512;28;20208;-89
2022/11/28 03:29:23;;;;;;;14.27;10.53;;;2.50;98.20;;;;;;5050409;28;20237;-89
2022/11/28 03:31:58;;;;;;;13.07;9.83;;;2.30;98.50;;;;;;5057913;28;20205;-89
2022/11/28 03:34:50;;;;;;;12.17;9.63;;;2.30;99.10;;;;;;5048050;28;20200;-89
2022/11/28 03:37:26;;;;;;;14.17;10.80;;;2.40;98.80;;;;;;5054925;28;20197;-89
2022/11/28 03:39:59;;;;;;;13.50;9.70;;;2.40;98.60;;;;;;5054106;28;20189;-89
2022/11/28 03:42:41;;;;;;;13.27;10.43;;;2.40;98.60;;;;;;5052721;28;20190;-88
2022/11/28 03:45:32;;;;;;;13.43;10.40;;;2.30;98.50;;;;;;5059500;28;20197;-88
2022/11/28 03:48:05;;;;;;;14.13;10.67;;;2.20;98.60;;;;;;5048234;28;20785;-87
2022/11/28 03:51:03;;;;;;;16.27;11.43;;;2.10;99.00;;;;;;5051219;28;20285;-87
2022/11/28 03:53:41;;;;;;;15.47;11.27;;;2.20;99.20;;;;;;5062250;28;20253;-87
2022/11/28 03:56:14;;;;;;;13.40;10.13;;;2.20;99.20;;;;;;5058767;28;20199;-88
2022/11/28 03:59:00;;;;;;;17.70;10.87;;;2.20;99.20;;;;;;5049827;28;20205;-88
2022/11/28 04:01:37;;;;;;;14.20;10.43;;;2.10;99.20;;;;;;5055562;28;20208;-88
2022/11/28 04:04:12;;;;;;;15.20;10.87;;;2.20;99.00;;;;;;5056097;28;20281;-88
2022/11/28 04:06:53;;;;;;;14.17;10.80;;;2.10;98.90;;;;;;5064492;28;20185;-87
2022/11/28 04:09:35;;;;;;;15.63;10.73;;;2.10;98.90;;;;;;5059343;28;20293;-88
2022/11/28 04:12:41;;;;;;;13.97;10.20;;;2.20;99.00;;;;;;5054509;28;20201;-88
2022/11/28 04:15:33;;;;;;;14.37;10.73;;;2.10;98.80;;;;;;5049625;28;20227;-87
2022/11/28 04:18:53;;;;;;;14.80;10.57;;;2.10;99.10;;;;;;5058034;28;20576;-87
2022/11/28 04:21:29;;;;;;;15.50;11.27;;;2.00;99.60;;;;;;5051628;28;20198;-88
2022/11/28 04:24:01;;;;;;;14.73;11.00;;;2.10;99.40;;;;;;5060764;28;20197;-88
2022/11/28 04:29:18;;;;;;;16.60;11.30;;;2.30;98.90;;;;;;5056371;28;20229;-88
2022/11/28 04:31:58;;;;;;;16.23;11.97;;;2.30;98.90;;;;;;5051354;28;20201;-88
2022/11/28 04:34:37;;;;;;;14.60;10.83;;;2.30;98.80;;;;;;5031251;28;20202;-87
2022/11/28 04:37:14;;;;;;;15.23;11.23;;;2.30;98.70;;;;;;5063545;28;20280;-88
2022/11/28 04:39:45;;;;;;;15.97;11.87;;;2.30;99.10;;;;;;5034348;28;20194;-88
2022/11/28 04:42:23;;;;;;;16.27;10.67;;;2.20;99.00;;;;;;5053504;28;20256;-88
2022/11/28 04:45:22;;;;;;;15.87;11.17;;;2.20;99.50;;;;;;5053021;28;20197;-87
2022/11/28 04:47:49;;;;;;;15.43;10.30;;;2.10;99.40;;;;;;5054476;28;20222;-88
2022/11/28 04:54:02;;;;;;;15.77;11.53;;;2.10;99.60;;;;;;5048845;28;20268;-88
2022/11/28 04:56:37;;;;;;;15.83;11.07;;;2.00;99.60;;;;;;5054811;28;20197;-88
2022/11/28 04:59:10;;;;;;;14.27;11.10;;;2.30;99.70;;;;;;5053050;28;20661;-89
2022/11/28 05:01:45;;;;;;;14.93;10.70;;;2.20;99.30;;;;;;5051944;28;20197;-87
2022/11/28 05:04:18;;;;;;;13.77;10.97;;;2.30;99.30;;;;;;5054209;28;20201;-87
2022/11/28 05:07:05;;;;;;;14.13;10.53;;;2.20;99.30;;;;;;5036000;28;20198;-87
2022/11/28 05:09:57;;;;;;;16.10;11.50;;;2.30;99.70;;;;;;5052098;28;20689;-87
2022/11/28 05:12:30;;;;;;;15.13;11.03;;;2.50;98.90;;;;;;5046538;28;20209;-87
2022/11/28 05:15:17;;;;;;;14.90;10.83;;;2.50;98.80;;;;;;5052020;28;20285;-87
2022/11/28 05:17:45;;;;;;;15.50;10.93;;;2.50;98.90;;;;;;5053820;28;20230;-87
2022/11/28 05:20:12;;;;;;;17.43;11.63;;;2.50;98.40;;;;;;5032502;28;20562;-87
2022/11/28 05:22:48;;;;;;;18.00;12.37;;;2.40;98.50;;;;;;5051869;28;20307;-88
2022/11/28 05:25:18;;;;;;;15.93;11.23;;;2.30;99.10;;;;;;5047941;28;20212;-88
2022/11/28 05:27:45;;;;;;;14.53;10.87;;;2.20;99.40;;;;;;5053071;28;20275;-88
2022/11/28 05:30:32;;;;;;;14.47;10.43;;;2.20;99.60;;;;;;5050601;28;21989;-87
2022/11/28 05:33:12;;;;;;;15.03;10.27;;;2.20;99.60;;;;;;5053959;28;20586;-87
2022/11/28 05:35:39;;;;;;;14.33;10.77;;;2.20;99.90;;;;;;5051513;28;20709;-87
2022/11/28 05:38:07;;;;;;;16.80;10.53;;;2.30;99.70;;;;;;5057546;28;20201;-88
2022/11/28 05:40:42;;;;;;;13.80;10.23;;;2.30;99.70;;;;;;5050761;28;20205;-87
2022/11/28 05:43:12;;;;;;;14.63;10.80;;;2.30;99.70;;;;;;5051330;28;20201;-88
2022/11/28 05:46:03;;;;;;;15.13;10.57;;;2.30;99.70;;;;;;5048212;28;20269;-87
2022/11/28 05:48:42;;;;;;;15.83;11.07;;;2.30;99.70;;;;;;5049105;28;20297;-87
2022/11/28 05:51:36;;;;;;;16.40;10.63;;;2.30;99.70;;;;;;5051347;28;20560;-87
2022/11/28 05:54:24;;;;;;;13.93;10.17;;;2.30;99.70;;;;;;5050731;28;20268;-86
2022/11/28 05:57:01;;;;;;;14.10;10.77;;;2.30;99.70;;;;;;5036747;28;20198;-87
2022/11/28 05:59:48;;;;;;;12.97;10.33;;;2.50;99.70;;;;;;5045763;28;20209;-88
2022/11/28 06:02:26;;;;;;;14.53;10.40;;;2.50;99.10;;;;;;5039772;28;20659;-86
2022/11/28 06:04:54;;;;;;;14.23;10.03;;;2.50;99.20;;;;;;5039244;28;20224;-87
2022/11/28 06:07:24;;;;;;;13.60;10.27;;;2.60;98.90;;;;;;5050056;28;20535;-87
2022/11/28 06:10:36;;;;;;;13.17;9.43;;;2.60;99.10;;;;;;5048621;28;20216;-87
2022/11/28 06:13:03;;;;;;;13.07;10.13;;;2.70;98.80;;;;;;5052886;28;20259;-86
2022/11/28 06:15:37;;;;;;;13.60;10.13;;;2.70;98.30;;;;;;5048641;28;20202;-88
2022/11/28 06:18:08;;;;;;;12.57;9.40;;;2.60;98.80;;;;;;5039125;28;20207;-88
2022/11/28 06:20:37;;;;;;;13.47;10.20;;;2.80;98.30;;;;;;5041533;28;20740;-89
2022/11/28 06:23:09;;;;;;;12.93;10.00;;;2.90;98.00;;;;;;5046030;28;20277;-91
2022/11/28 06:25:48;;;;;;;13.20;10.07;;;2.90;97.90;;;;;;5043948;28;20233;-90
2022/11/28 06:28:15;;;;;;;12.93;9.73;;;3.00;97.70;;;;;;5027529;28;20217;-91
2022/11/28 06:30:54;;;;;;;12.50;9.43;;;3.00;97.80;;;;;;5059997;28;20551;-90
2022/11/28 06:33:26;;;;;;;14.00;9.40;;;3.00;97.70;;;;;;5046833;28;20697;-87
2022/11/28 06:36:19;;;;;;;14.50;10.37;;;2.90;97.50;;;;;;5048733;28;20262;-89
2022/11/28 06:41:30;;;;;;;15.67;9.77;;;3.00;97.50;;;;;;5031644;28;20210;-91
2022/11/28 06:43:57;;;;;;;14.70;10.70;;;2.90;97.70;;;;;;5051994;28;20256;-91
2022/11/28 06:46:37;;;;;;;12.83;9.93;;;3.00;97.70;;;;;;5041370;28;20282;-90
2022/11/28 06:49:10;;;;;;;16.13;9.83;;;2.90;97.60;;;;;;5045458;28;20221;-91
2022/11/28 06:54:36;;;;;;;14.33;10.43;;;2.90;98.00;;;;;;5036206;28;21127;-91
2022/11/28 06:57:13;;;;;;;13.43;10.63;;;2.80;97.70;;;;;;5049829;28;20193;-91
2022/11/28 06:59:43;;;;;;;14.00;11.27;;;2.80;98.20;;;;;;5055653;28;20233;-91
2022/11/28 07:05:36;;;;;;;14.97;11.30;;;2.90;98.00;;;;;;5005464;28;20218;-93
2022/11/28 07:08:05;;;;;;;14.93;11.30;;;3.00;97.90;;;;;;5150310;22;20253;-93
2022/11/28 07:10:33;;;;;;;14.90;10.97;;;2.90;97.90;;;;;;5062189;28;20217;-94
2022/11/28 07:13:01;;;;;;;15.93;11.30;;;2.80;98.40;;;;;;5065893;28;20225;-94
2022/11/28 07:15:28;;;;;;;15.17;11.30;;;2.90;98.40;;;;;;5058364;28;20289;-94
2022/11/28 07:18:12;;;;;;;14.23;10.80;;;2.90;98.20;;;;;;5069415;28;20193;-93
2022/11/28 07:20:39;;;;;;;15.73;11.13;;;2.80;98.20;;;;;;5059168;28;20222;-93
2022/11/28 07:25:43;;;;;;;13.93;10.83;;;3.00;98.30;;;;;;5109128;22;20230;-93
2022/11/28 07:28:12;;;;;;;14.90;10.70;;;3.00;97.60;;;;;;5040686;28;20275;-94
2022/11/28 07:30:40;;;;;;;14.00;10.73;;;2.90;98.10;;;;;;5059419;28;20240;-93
2022/11/28 07:33:07;;;;;;;13.73;9.70;;;3.00;97.90;;;;;;5068974;28;20209;-93
2022/11/28 07:35:34;;;;;;;13.20;10.50;;;3.00;97.80;;;;;;5094938;22;20289;-93
2022/11/28 07:45:51;;;;;;;14.07;10.70;;;2.90;99.00;;;;;;5538197;22;20229;-92
2022/11/28 08:14:43;;;;;;;16.43;11.10;;;3.50;97.20;;;;;;5379860;22;20315;-95
2022/11/28 08:22:21;;;;;;;17.30;12.17;;;3.70;96.80;;;;;;5740644;22;1142143;-94
2022/11/28 08:24:48;;;;;;;14.10;10.90;;;3.50;97.20;;;;;;5608169;22;20261;-94
2022/11/28 08:27:15;;;;;;;13.93;9.70;;;3.60;97.00;;;;;;5322337;22;20267;-95
2022/11/28 09:03:40;;;;;;;13.13;9.87;;;4.20;95.80;;;;;;5050483;28;20198;-95
2022/11/28 09:12:07;;;;;;;14.40;9.27;;;4.30;96.20;;;;;;5265645;22;20233;-94
2022/11/28 09:14:34;;;;;;;14.80;9.87;;;4.40;95.80;;;;;;5073695;28;20283;-94
2022/11/28 09:17:30;;;;;;;11.77;8.47;;;4.60;95.00;;;;;;5086108;28;20272;-96
2022/11/28 09:22:41;;;;;;;10.80;8.63;;;5.10;93.00;;;;;;5019965;28;20194;-96
2022/11/28 09:25:09;;;;;;;13.90;9.37;;;5.20;92.40;;;;;;5023709;28;20231;-95
2022/11/28 09:27:54;;;;;;;12.53;8.90;;;5.20;92.50;;;;;;5016156;28;20266;-95
2022/11/28 09:30:22;;;;;;;10.67;8.93;;;5.30;93.30;;;;;;5018738;28;20273;-94
2022/11/28 11:38:45;;;;;;;10.00;6.57;;;7.30;82.40;;;;;;5057674;28;20232;-95
2022/11/28 14:31:25;;;;;;;11.60;7.93;;;7.30;91.10;;;;;;5206217;22;20229;-86
2022/11/28 14:33:59;;;;;;;14.65;8.00;;;7.30;91.70;;;;;;5062351;28;20204;-87
2022/11/28 14:36:33;;;;;;;13.80;8.02;;;7.20;92.20;;;;;;5057796;28;20220;-86
2022/11/28 14:39:08;;;;;;;11.85;7.90;;;7.20;92.70;;;;;;5055861;28;20699;-88
2022/11/28 14:42:08;;;;;;;12.30;7.68;;;7.20;93.00;;;;;;5068550;28;20215;-86
2022/11/28 14:44:46;;;;;;;12.10;8.02;;;7.10;93.10;;;;;;5057382;28;20390;-85
2022/11/28 14:47:18;;;;;;;15.70;8.13;;;7.10;93.20;;;;;;5058311;28;20205;-85
2022/11/28 14:49:49;;;;;;;10.35;7.60;;;7.10;93.50;;;;;;5057937;28;20232;-86
2022/11/28 14:52:24;;;;;;;10.18;7.03;;;7.10;93.20;;;;;;5062779;28;20288;-86
2022/11/28 14:54:53;;;;;;;9.23;5.93;;;7.10;92.50;;;;;;5079666;28;20280;-85
2022/11/28 14:57:24;;;;;;;8.75;6.75;;;7.00;92.50;;;;;;5082146;28;20235;-86
2022/11/28 14:59:53;;;;;;;8.13;6.32;;;7.00;92.50;;;;;;5082576;28;20200;-86
2022/11/28 15:02:34;;;;;;;8.82;6.10;;;7.00;92.40;;;;;;5082489;28;20212;-86
2022/11/28 15:05:19;;;;;;;8.23;5.82;;;7.00;92.20;;;;;;5078678;28;20543;-87
2022/11/28 15:08:01;;;;;;;7.68;6.30;;;7.00;92.10;;;;;;5084574;28;20200;-85
2022/11/28 15:10:39;;;;;;;7.65;5.63;;;7.00;92.30;;;;;;5077677;28;20221;-84
2022/11/28 15:13:19;;;;;;;13.73;6.45;;;7.00;92.10;;;;;;5085485;28;20613;-86
2022/11/28 15:15:49;;;;;;;10.77;6.57;;;6.90;92.30;;;;;;5082270;28;20247;-83
2022/11/28 15:18:22;;;;;;;10.68;7.07;;;6.90;92.70;;;;;;5076699;28;20232;-89
2022/11/28 15:20:52;;;;;;;9.38;6.25;;;6.90;93.40;;;;;;5077511;28;20208;-87
2022/11/28 15:23:24;;;;;;;11.13;6.28;;;6.90;93.60;;;;;;5063099;28;20283;-87
2022/11/28 15:25:55;;;;;;;9.55;6.05;;;6.80;93.80;;;;;;5077040;28;20287;-88
2022/11/28 15:28:26;;;;;;;10.55;5.78;;;6.80;94.10;;;;;;5075611;28;20300;-88
2022/11/28 15:30:54;;;;;;;8.52;6.47;;;6.70;93.90;;;;;;5075385;28;20225;-87
2022/11/28 15:33:33;;;;;;;6.80;5.90;;;6.70;94.40;;;;;;5076835;28;20209;-87
2022/11/28 15:36:03;;;;;;;8.38;6.00;;;6.70;94.40;;;;;;5075990;28;20812;-87
2022/11/28 15:38:31;;;;;;;7.95;5.90;;;6.70;94.40;;;;;;5082083;28;20212;-87
2022/11/28 15:41:00;;;;;;;11.65;6.13;;;6.70;94.50;;;;;;5080660;28;20676;-87
2022/11/28 15:43:29;;;;;;;6.80;5.88;;;6.70;94.60;;;;;;5084037;28;20200;-87
2022/11/28 15:46:01;;;;;;;10.73;6.35;;;6.60;94.70;;;;;;5078342;28;20221;-87
2022/11/28 15:48:35;;;;;;;8.35;5.68;;;6.60;95.00;;;;;;5086391;28;20295;-87
2022/11/28 15:51:08;;;;;;;7.07;5.53;;;6.50;95.40;;;;;;5080322;28;20240;-87
2022/11/28 15:53:42;;;;;;;7.82;6.10;;;6.40;95.40;;;;;;5075800;28;20220;-87
2022/11/28 15:56:11;;;;;;;7.75;6.38;;;6.50;95.90;;;;;;5075647;28;20199;-86
2022/11/28 15:58:39;;;;;;;8.18;5.97;;;6.50;95.80;;;;;;5076512;28;20286;-86
2022/11/28 16:01:11;;;;;;;10.65;5.88;;;6.50;95.40;;;;;;5076479;28;20205;-88
2022/11/28 16:03:47;;;;;;;8.52;5.88;;;6.60;95.40;;;;;;5076612;28;20205;-87
2022/11/28 16:06:14;;;;;;;7.63;5.90;;;6.60;95.40;;;;;;5073718;28;20241;-87
2022/11/28 16:08:48;;;;;;;10.30;6.47;;;6.60;95.40;;;;;;5074687;28;20193;-87
2022/11/28 16:11:18;;;;;;;8.77;5.65;;;6.60;95.40;;;;;;5072774;28;20868;-86
2022/11/28 16:13:46;;;;;;;10.30;5.88;;;6.60;95.40;;;;;;5081300;28;20200;-87
2022/11/28 16:16:17;;;;;;;7.55;6.32;;;6.60;95.40;;;;;;5077712;28;20207;-86
2022/11/28 16:18:48;;;;;;;10.88;6.22;;;6.60;95.60;;;;;;5079278;28;20205;-87
2022/11/28 16:21:47;;;;;;;10.70;5.47;;;6.50;95.70;;;;;;5079521;28;20286;-91
2022/11/28 16:24:23;;;;;;;8.57;6.13;;;6.50;96.10;;;;;;5080137;28;20205;-87
2022/11/28 16:26:55;;;;;;;11.10;6.10;;;6.50;96.30;;;;;;5075309;28;20258;-85
2022/11/28 16:29:23;;;;;;;9.10;6.18;;;6.50;96.30;;;;;;5075639;28;20205;-84
2022/11/28 16:31:52;;;;;;;7.38;5.93;;;6.50;96.50;;;;;;5075584;28;20207;-85
2022/11/28 16:34:44;;;;;;;7.80;6.07;;;6.60;96.50;;;;;;5082214;28;20260;-85
2022/11/28 16:37:19;;;;;;;7.45;5.75;;;6.60;96.20;;;;;;5076427;28;20294;-84
2022/11/28 16:39:46;;;;;;;10.65;6.40;;;6.60;96.30;;;;;;5087283;28;20200;-85
2022/11/28 16:42:19;;;;;;;10.73;6.25;;;6.60;96.50;;;;;;5082318;28;20205;-84
2022/11/28 16:44:46;;;;;;;8.35;6.70;;;6.60;96.60;;;;;;5080438;28;20209;-84
2022/11/28 16:47:27;;;;;;;10.30;6.93;;;6.60;96.70;;;;;;5082283;28;20258;-87
2022/11/28 16:50:23;;;;;;;14.63;8.27;;;6.60;96.70;;;;;;5084512;28;20220;-84
2022/11/28 16:52:53;;;;;;;19.30;10.18;;;6.70;96.40;;;;;;5030096;28;20205;-84
2022/11/28 16:55:43;;;;;;;13.23;9.48;;;6.70;96.00;;;;;;5083101;28;20242;-84
2022/11/28 16:58:13;;;;;;;11.30;8.38;;;6.80;95.60;;;;;;5087028;28;20691;-84
2022/11/28 17:00:42;;;;;;;12.85;8.85;;;6.70;95.60;;;;;;5081679;28;20202;-84
2022/11/28 17:03:43;;;;;;;16.27;9.60;;;6.80;95.40;;;;;;5064432;28;20201;-84
2022/11/28 17:06:32;;;;;;;13.20;10.00;;;6.80;95.50;;;;;;5078552;28;20215;-84
2022/11/28 17:09:01;;;;;;;14.05;9.52;;;6.80;95.40;;;;;;5078620;28;20205;-84
2022/11/28 17:11:31;;;;;;;14.10;9.65;;;6.80;95.40;;;;;;5076975;28;20223;-85
2022/11/28 17:13:59;;;;;;;13.68;9.52;;;6.80;95.60;;;;;;5074397;28;20204;-85
2022/11/28 17:16:27;;;;;;;13.38;9.63;;;6.70;96.00;;;;;;5072045;28;20668;-83
2022/11/28 17:18:54;;;;;;;15.80;10.25;;;6.70;96.20;;;;;;5077416;28;20696;-82
2022/11/28 17:21:33;;;;;;;14.75;9.25;;;6.70;96.50;;;;;;5082329;28;20236;-84
2022/11/28 17:24:01;;;;;;;15.50;10.07;;;6.60;96.70;;;;;;5072472;28;20205;-86
2022/11/28 17:26:28;;;;;;;14.80;9.48;;;6.60;96.90;;;;;;5079370;28;20204;-83
2022/11/28 17:28:57;;;;;;;16.55;10.93;;;6.60;96.60;;;;;;5077051;28;20569;-85
2022/11/28 17:31:24;;;;;;;17.35;10.70;;;6.60;96.60;;;;;;5070463;28;20730;-83
2022/11/28 17:33:55;;;;;;;13.68;10.50;;;6.60;96.80;;;;;;5077907;28;20309;-83
2022/11/28 17:36:23;;;;;;;12.85;9.68;;;6.60;96.70;;;;;;5072846;28;20204;-83
2022/11/28 17:38:51;;;;;;;13.18;10.13;;;6.60;96.50;;;;;;5076990;28;20229;-81
2022/11/28 17:41:18;;;;;;;11.40;8.82;;;6.60;96.90;;;;;;5075848;28;20213;-81
2022/11/28 17:43:45;;;;;;;13.13;9.70;;;6.50;96.90;;;;;;5086241;28;20566;-82
2022/11/28 17:46:13;;;;;;;13.35;9.63;;;6.50;97.00;;;;;;5076686;28;20234;-83
2022/11/28 17:48:40;;;;;;;15.50;10.20;;;6.50;97.20;;;;;;5074274;28;20202;-82
2022/11/28 17:51:07;;;;;;;16.50;10.43;;;6.40;97.10;;;;;;5079253;28;20644;-83
2022/11/28 17:53:34;;;;;;;14.07;10.00;;;6.30;97.40;;;;;;5078699;28;20735;-83
2022/11/28 17:56:02;;;;;;;14.27;9.82;;;6.40;97.70;;;;;;5075219;28;20199;-81
2022/11/28 17:58:29;;;;;;;12.57;9.85;;;6.40;97.60;;;;;;5067890;28;20208;-82
2022/11/28 18:00:56;;;;;;;12.68;9.50;;;6.40;97.60;;;;;;5072696;28;20658;-83
2022/11/28 18:03:23;;;;;;;15.57;10.25;;;6.50;97.60;;;;;;5072943;28;20296;-82
2022/11/28 18:05:51;;;;;;;13.00;9.68;;;6.50;97.60;;;;;;5080760;28;20622;-85
2022/11/28 18:08:20;;;;;;;12.80;9.90;;;6.50;97.80;;;;;;5054611;28;20595;-82
2022/11/28 18:10:47;;;;;;;13.20;9.90;;;6.50;97.80;;;;;;5076209;28;20213;-83
2022/11/28 18:13:16;;;;;;;12.10;9.43;;;6.40;98.00;;;;;;5074016;28;20630;-84
2022/11/28 18:15:46;;;;;;;12.15;9.10;;;6.30;98.00;;;;;;5080382;28;20203;-87
2022/11/28 18:18:25;;;;;;;14.02;9.85;;;6.30;98.10;;;;;;5079017;28;20209;-87
2022/11/28 18:20:52;;;;;;;12.20;9.20;;;6.40;98.20;;;;;;5073700;28;20227;-85
2022/11/28 18:23:19;;;;;;;16.17;9.13;;;6.40;98.40;;;;;;5074084;28;20204;-86
2022/11/28 18:25:47;;;;;;;15.18;8.90;;;6.50;98.20;;;;;;5079927;28;20300;-84
2022/11/28 18:28:15;;;;;;;12.75;8.98;;;6.50;98.00;;;;;;5041024;28;20208;-84
2022/11/28 18:30:45;;;;;;;12.98;8.73;;;6.50;97.90;;;;;;5076225;28;20236;-85
2022/11/28 18:33:17;;;;;;;13.80;9.13;;;6.60;98.00;;;;;;5076343;28;20296;-84
2022/11/28 18:35:49;;;;;;;12.48;8.98;;;6.70;97.80;;;;;;5074837;28;20643;-85
2022/11/28 18:38:16;;;;;;;14.95;9.32;;;6.70;97.50;;;;;;5057154;28;20283;-85
2022/11/28 18:40:43;;;;;;;14.20;9.02;;;6.70;97.60;;;;;;5072422;28;20193;-84
2022/11/28 18:43:10;;;;;;;13.40;9.25;;;6.60;97.70;;;;;;5082651;28;20629;-86
2022/11/28 18:45:38;;;;;;;11.15;8.48;;;6.60;98.00;;;;;;5079140;28;20717;-86
2022/11/28 18:48:06;;;;;;;12.98;9.07;;;6.50;98.30;;;;;;5075714;28;20212;-85
2022/11/28 18:50:34;;;;;;;12.32;8.15;;;6.50;98.50;;;;;;5058416;28;20221;-85
2022/11/28 18:53:02;;;;;;;13.38;8.70;;;6.60;98.10;;;;;;5077900;28;21984;-84
2022/11/28 18:55:29;;;;;;;13.85;8.45;;;6.70;97.80;;;;;;5080637;28;20319;-85
2022/11/28 18:57:55;;;;;;;12.57;8.10;;;6.70;97.70;;;;;;5078119;28;20740;-84
2022/11/28 19:00:23;;;;;;;12.00;8.32;;;6.70;98.00;;;;;;5074643;28;20207;-85
2022/11/28 19:02:52;;;;;;;19.67;11.50;;;6.70;98.10;;;;;;5074960;28;20202;-84
2022/11/28 19:05:19;;;;;;;11.52;8.57;;;6.70;98.10;;;;;;5079384;28;20201;-84
2022/11/28 19:07:46;;;;;;;13.48;9.38;;;6.70;98.10;;;;;;5066491;28;20295;-85
2022/11/28 19:10:13;;;;;;;12.50;8.55;;;6.60;98.20;;;;;;5077259;28;20295;-84
2022/11/28 19:12:40;;;;;;;12.05;8.63;;;6.60;98.70;;;;;;5078888;28;20205;-84
2022/11/28 19:15:09;;;;;;;13.02;9.18;;;6.60;99.20;;;;;;5058945;28;20215;-87
2022/11/28 19:17:36;;;;;;;14.05;8.73;;;6.60;99.10;;;;;;5077280;28;20200;-86
2022/11/28 19:20:06;;;;;;;13.40;9.40;;;6.70;99.40;;;;;;5075168;28;20196;-84
2022/11/28 19:22:35;;;;;;;13.15;9.18;;;6.70;99.10;;;;;;5076259;28;20551;-85
2022/11/28 19:25:02;;;;;;;13.00;9.55;;;6.70;99.10;;;;;;5079846;28;20201;-85
2022/11/28 19:27:29;;;;;;;13.10;8.88;;;6.80;99.20;;;;;;5080685;28;20669;-84
2022/11/28 19:29:56;;;;;;;13.40;9.02;;;6.80;99.20;;;;;;5081557;28;20201;-85
2022/11/28 19:32:23;;;;;;;17.33;10.82;;;6.80;99.40;;;;;;5054068;28;20225;-86
2022/11/28 19:34:52;;;;;;;16.83;11.15;;;6.80;99.40;;;;;;5054890;28;20197;-85
2022/11/28 19:37:20;;;;;;;15.85;11.27;;;6.80;99.50;;;;;;5054929;28;20228;-87
2022/11/28 19:39:47;;;;;;;15.82;11.48;;;6.70;99.70;;;;;;5076560;28;20302;-85
2022/11/28 19:42:15;;;;;;;14.27;11.20;;;6.70;99.80;;;;;;5058526;28;20204;-84
2022/11/28 19:44:43;;;;;;;16.30;11.82;;;6.50;99.80;;;;;;5075038;28;20224;-86
2022/11/28 19:47:10;;;;;;;17.67;11.50;;;6.50;99.90;;;;;;5079508;28;20212;-85
2022/11/28 19:49:37;;;;;;;15.60;11.75;;;6.40;99.80;;;;;;5080779;28;20222;-85